Airfield :
LOGIN :

Register | Disclaimer

   EN    FR    IT 

 










Legend :    VFR   Marginal VFR   IFR   Intensive IFR   Very Intensive IFR
Visi :
Ceiling :
>= 8 km
>= 3000ft
5 to 8 km
1000 to 3000 ft
1500m to 5 km
500 to 1000 ft
800 to 1500m
200 to 500 ft
< 800m
< 200 ft
Symbols :   Thunderstorms  Fog  Heavy snow  Heavy precipitations  Wind > 20 kt
SIGMETs :     Misc.  Thunderstorms  Icing  Turbulence  Mountain Waves  Volcanic Ashes






- Airport Elevation : 96 ft
- IATA code : REG


LICR - Reggio Calabria

CURRENT METAR :
  • 181950Z AUTO 04008KT 9999 FEW039/// BKN067/// 12/07 Q1017

EXPIRED METARs :
  • 181920Z AUTO 04006KT 9999 -RA BKN065/// 12/07 Q1017
  • 181850Z AUTO 04006KT 010V080 9999 BKN066/// 12/07 Q1017
  • 181820Z AUTO 06008KT 030V090 9999 -DZ OVC066/// 11/08 Q1016 REDZ
  • 181750Z AUTO 05008KT 020V080 9999 -RA FEW051/// BKN069/// BKN096/// 11/09 Q1016 RERA
  • 181720Z AUTO 05006KT 020V130 9000 RA OVC053/// 12/09 Q1016

TAF TAF LICR
Valid from the 18 at 18:00 until the 19 at 18:00 UTC


181700Z 1818/1918 35010KT 9999 SCT030
BECMG 1822/1824 VRB05KT
BECMG 1906/1908 35012KT
TEMPO 1906/1918 SHRA



MET'MAP, your aeronautical weather chart ! - Copyright ORBIFLY December 2007 - Disclaimer

ORBIFLY MET'MAP TEAM :

Programming & Development : Alexandra Zaïnal
Concept & original design : Baudouin d'Aumeries
Assistance for programming : Marc-Olivier Méhu
Technical & hardware support : Manuel Goepfert

Contact : metmap@orbifly.com




SOURCES & CREDITS :

   NOAA